Decoded Metar for UATG (ATYRAU in KAZAKHSTAN) (IATA:N/A) | Meteo·Mobile Aviation Weather
aviador You're here:

UATG Decoded Metar

ATYRAU in KAZAKHSTAN
Report Time2019-10-22 14:00:00
UTC Time2019-10-22 14:41:49
Flight Rules vfr VFR
Wind220° at 6 kt
W.Decomp.*RWY 14: 1.9 kt HW 5.7 kt RCW
Visibility9999 m
Phenomena:N/A
Clouds:N/A
Expected CloudBase > 3,600 ft AGL from Temp-Dew spread
CeilingNone
Temp10°C (ISA -5)
Dew Point01°C (54% RH)
AAT6.0°C
QNH1026 hPa
Density Alt-1,037 ft
Elevation-72 ft
Report Wrong Elevation
Raw Report
UATG 221400Z 22003MPS CAVOK 10/01 Q1026 R14/CLRD70 NOSIG RMK
QFE771/1028=

Extra information for UATG:More info

Metar Taf Metar & Taf Last 4 Metars F.Rules Stats Wind Profile Meteogram Temp Stats Airport Information Weather charts Add Link Nearby VenuesMetar ALERT Operation Metar Decoded Social comments